sensor_id;sensor_type;location;lat;lon;timestamp;temperature;humidity
30594;DHT22;33199;47.590;8.300;2023-05-17T00:02:00;15.70;74.80
30594;DHT22;33199;47.590;8.300;2023-05-17T00:04:26;15.70;74.70
30594;DHT22;33199;47.590;8.300;2023-05-17T00:06:51;15.70;74.80
30594;DHT22;33199;47.590;8.300;2023-05-17T00:09:18;15.70;74.80
30594;DHT22;33199;47.590;8.300;2023-05-17T00:11:44;15.70;74.70
30594;DHT22;33199;47.590;8.300;2023-05-17T00:14:09;15.70;74.80
30594;DHT22;33199;47.590;8.300;2023-05-17T00:16:36;15.70;74.70
30594;DHT22;33199;47.590;8.300;2023-05-17T00:19:01;15.70;74.70
30594;DHT22;33199;47.590;8.300;2023-05-17T00:21:27;15.70;74.70
30594;DHT22;33199;47.590;8.300;2023-05-17T00:23:52;15.70;74.60
30594;DHT22;33199;47.590;8.300;2023-05-17T00:26:18;15.70;74.70
30594;DHT22;33199;47.590;8.300;2023-05-17T00:28:44;15.70;74.70
30594;DHT22;33199;47.590;8.300;2023-05-17T00:31:09;15.70;74.80
30594;DHT22;33199;47.590;8.300;2023-05-17T00:33:35;15.70;74.80
30594;DHT22;33199;47.590;8.300;2023-05-17T00:36:01;15.70;74.70
30594;DHT22;33199;47.590;8.300;2023-05-17T00:38:26;15.60;74.50
30594;DHT22;33199;47.590;8.300;2023-05-17T00:40:52;15.70;74.70
30594;DHT22;33199;47.590;8.300;2023-05-17T00:43:19;15.70;74.60
30594;DHT22;33199;47.590;8.300;2023-05-17T00:45:44;15.70;74.70
30594;DHT22;33199;47.590;8.300;2023-05-17T00:48:12;15.60;74.70
30594;DHT22;33199;47.590;8.300;2023-05-17T00:50:38;15.70;74.70
30594;DHT22;33199;47.590;8.300;2023-05-17T00:53:03;15.70;74.60
30594;DHT22;33199;47.590;8.300;2023-05-17T00:55:29;15.70;74.80
30594;DHT22;33199;47.590;8.300;2023-05-17T00:57:55;15.70;74.60
30594;DHT22;33199;47.590;8.300;2023-05-17T01:00:20;15.70;74.80
30594;DHT22;33199;47.590;8.300;2023-05-17T01:02:46;15.60;74.70
30594;DHT22;33199;47.590;8.300;2023-05-17T01:05:13;15.70;74.70
30594;DHT22;33199;47.590;8.300;2023-05-17T01:07:38;15.70;74.60
30594;DHT22;33199;47.590;8.300;2023-05-17T01:10:04;15.60;74.50
30594;DHT22;33199;47.590;8.300;2023-05-17T01:15:22;15.60;74.50
30594;DHT22;33199;47.590;8.300;2023-05-17T01:28:06;15.60;74.40
30594;DHT22;33199;47.590;8.300;2023-05-17T01:30:32;15.60;74.50
30594;DHT22;33199;47.590;8.300;2023-05-17T01:32:58;15.60;74.40
30594;DHT22;33199;47.590;8.300;2023-05-17T01:35:25;15.60;74.50
30594;DHT22;33199;47.590;8.300;2023-05-17T01:37:53;15.60;74.50
30594;DHT22;33199;47.590;8.300;2023-05-17T01:40:19;15.60;74.40
30594;DHT22;33199;47.590;8.300;2023-05-17T01:42:45;15.60;74.70
30594;DHT22;33199;47.590;8.300;2023-05-17T01:45:15;15.60;74.50
30594;DHT22;33199;47.590;8.300;2023-05-17T01:48:30;15.60;74.50
30594;DHT22;33199;47.590;8.300;2023-05-17T01:50:28;15.60;74.40
30594;DHT22;33199;47.590;8.300;2023-05-17T01:53:38;15.60;74.40
30594;DHT22;33199;47.590;8.300;2023-05-17T01:55:49;15.60;74.30
30594;DHT22;33199;47.590;8.300;2023-05-17T01:58:15;15.60;74.50
30594;DHT22;33199;47.590;8.300;2023-05-17T02:00:43;15.60;74.40
30594;DHT22;33199;47.590;8.300;2023-05-17T02:03:16;15.60;74.40
30594;DHT22;33199;47.590;8.300;2023-05-17T02:05:41;15.60;74.40
30594;DHT22;33199;47.590;8.300;2023-05-17T02:08:07;15.60;74.40
30594;DHT22;33199;47.590;8.300;2023-05-17T02:10:32;15.60;74.40
30594;DHT22;33199;47.590;8.300;2023-05-17T02:12:58;15.60;74.30
30594;DHT22;33199;47.590;8.300;2023-05-17T02:15:23;15.60;74.30
30594;DHT22;33199;47.590;8.300;2023-05-17T02:17:49;15.60;74.40
30594;DHT22;33199;47.590;8.300;2023-05-17T02:20:14;15.50;74.30
30594;DHT22;33199;47.590;8.300;2023-05-17T02:22:40;15.50;74.30
30594;DHT22;33199;47.590;8.300;2023-05-17T02:25:05;15.50;74.30
30594;DHT22;33199;47.590;8.300;2023-05-17T02:27:31;15.50;74.30
30594;DHT22;33199;47.590;8.300;2023-05-17T02:29:57;15.50;74.30
30594;DHT22;33199;47.590;8.300;2023-05-17T02:32:22;15.50;74.20
30594;DHT22;33199;47.590;8.300;2023-05-17T02:34:48;15.50;74.10
30594;DHT22;33199;47.590;8.300;2023-05-17T02:37:13;15.50;74.10
30594;DHT22;33199;47.590;8.300;2023-05-17T02:39:39;15.50;74.10
30594;DHT22;33199;47.590;8.300;2023-05-17T02:42:04;15.50;74.10
30594;DHT22;33199;47.590;8.300;2023-05-17T02:44:30;15.50;74.10
30594;DHT22;33199;47.590;8.300;2023-05-17T02:46:56;15.50;74.10
30594;DHT22;33199;47.590;8.300;2023-05-17T02:49:21;15.50;74.10
30594;DHT22;33199;47.590;8.300;2023-05-17T02:51:46;15.50;74.10
30594;DHT22;33199;47.590;8.300;2023-05-17T02:54:12;15.50;74.10
30594;DHT22;33199;47.590;8.300;2023-05-17T02:56:37;15.50;74.10
30594;DHT22;33199;47.590;8.300;2023-05-17T02:59:03;15.50;74.00
30594;DHT22;33199;47.590;8.300;2023-05-17T03:01:28;15.50;74.00
30594;DHT22;33199;47.590;8.300;2023-05-17T03:03:54;15.50;74.00
30594;DHT22;33199;47.590;8.300;2023-05-17T03:06:19;15.50;74.70
30594;DHT22;33199;47.590;8.300;2023-05-17T03:08:45;15.50;74.10
30594;DHT22;33199;47.590;8.300;2023-05-17T03:11:10;15.50;74.00
30594;DHT22;33199;47.590;8.300;2023-05-17T03:13:36;15.50;74.00
30594;DHT22;33199;47.590;8.300;2023-05-17T03:16:01;15.50;74.10
30594;DHT22;33199;47.590;8.300;2023-05-17T03:18:27;15.50;74.10
30594;DHT22;33199;47.590;8.300;2023-05-17T03:20:53;15.50;74.10
30594;DHT22;33199;47.590;8.300;2023-05-17T03:23:19;15.50;74.10
30594;DHT22;33199;47.590;8.300;2023-05-17T03:25:45;15.50;74.10
30594;DHT22;33199;47.590;8.300;2023-05-17T03:28:11;15.50;74.10
30594;DHT22;33199;47.590;8.300;2023-05-17T03:30:36;15.50;74.10
30594;DHT22;33199;47.590;8.300;2023-05-17T03:33:02;15.50;74.10
30594;DHT22;33199;47.590;8.300;2023-05-17T03:35:27;15.50;74.10
30594;DHT22;33199;47.590;8.300;2023-05-17T03:37:53;15.40;74.00
30594;DHT22;33199;47.590;8.300;2023-05-17T03:40:18;15.40;74.00
30594;DHT22;33199;47.590;8.300;2023-05-17T03:42:44;15.50;74.10
30594;DHT22;33199;47.590;8.300;2023-05-17T03:45:10;15.40;74.00
30594;DHT22;33199;47.590;8.300;2023-05-17T03:47:35;15.50;74.10
30594;DHT22;33199;47.590;8.300;2023-05-17T03:50:01;15.50;74.10
30594;DHT22;33199;47.590;8.300;2023-05-17T03:52:26;15.50;74.40
30594;DHT22;33199;47.590;8.300;2023-05-17T03:54:52;15.50;74.10
30594;DHT22;33199;47.590;8.300;2023-05-17T03:57:17;15.40;74.00
30594;DHT22;33199;47.590;8.300;2023-05-17T03:59:43;15.40;74.00
30594;DHT22;33199;47.590;8.300;2023-05-17T04:02:10;15.40;74.00
30594;DHT22;33199;47.590;8.300;2023-05-17T04:04:35;15.40;74.00
30594;DHT22;33199;47.590;8.300;2023-05-17T04:07:01;15.40;74.00
30594;DHT22;33199;47.590;8.300;2023-05-17T04:09:26;15.40;74.00
30594;DHT22;33199;47.590;8.300;2023-05-17T04:11:52;15.40;72.40
30594;DHT22;33199;47.590;8.300;2023-05-17T04:14:17;15.30;61.80
30594;DHT22;33199;47.590;8.300;2023-05-17T04:16:43;15.20;63.40
30594;DHT22;33199;47.590;8.300;2023-05-17T04:19:09;15.10;64.80
30594;DHT22;33199;47.590;8.300;2023-05-17T04:21:34;15.10;66.40
30594;DHT22;33199;47.590;8.300;2023-05-17T04:24:00;15.00;66.20
30594;DHT22;33199;47.590;8.300;2023-05-17T04:26:25;15.10;67.40
30594;DHT22;33199;47.590;8.300;2023-05-17T04:28:51;15.10;68.60
30594;DHT22;33199;47.590;8.300;2023-05-17T04:31:16;15.10;69.50
30594;DHT22;33199;47.590;8.300;2023-05-17T04:33:42;15.10;70.00
30594;DHT22;33199;47.590;8.300;2023-05-17T04:36:08;15.10;70.40
30594;DHT22;33199;47.590;8.300;2023-05-17T04:38:33;15.10;70.60
30594;DHT22;33199;47.590;8.300;2023-05-17T04:41:05;15.10;70.50
30594;DHT22;33199;47.590;8.300;2023-05-17T04:43:31;15.10;70.90
30594;DHT22;33199;47.590;8.300;2023-05-17T04:45:56;15.10;71.00
30594;DHT22;33199;47.590;8.300;2023-05-17T04:48:22;15.10;71.10
30594;DHT22;33199;47.590;8.300;2023-05-17T04:50:48;15.10;71.10
30594;DHT22;33199;47.590;8.300;2023-05-17T04:53:13;15.10;71.20
30594;DHT22;33199;47.590;8.300;2023-05-17T04:55:40;15.10;71.40
30594;DHT22;33199;47.590;8.300;2023-05-17T04:58:05;15.10;71.40
30594;DHT22;33199;47.590;8.300;2023-05-17T05:00:31;15.10;71.40
30594;DHT22;33199;47.590;8.300;2023-05-17T05:02:56;15.10;71.40
30594;DHT22;33199;47.590;8.300;2023-05-17T05:05:22;15.10;72.20
30594;DHT22;33199;47.590;8.300;2023-05-17T05:07:49;15.10;71.50
30594;DHT22;33199;47.590;8.300;2023-05-17T05:10:14;15.10;71.60
30594;DHT22;33199;47.590;8.300;2023-05-17T05:12:41;15.10;71.60
30594;DHT22;33199;47.590;8.300;2023-05-17T05:15:07;15.20;71.70
30594;DHT22;33199;47.590;8.300;2023-05-17T05:17:33;15.10;71.60
30594;DHT22;33199;47.590;8.300;2023-05-17T05:19:58;15.10;71.60
30594;DHT22;33199;47.590;8.300;2023-05-17T05:22:24;15.10;71.70
30594;DHT22;33199;47.590;8.300;2023-05-17T05:24:50;15.10;71.70
30594;DHT22;33199;47.590;8.300;2023-05-17T05:27:16;15.10;71.70
30594;DHT22;33199;47.590;8.300;2023-05-17T05:29:41;15.10;71.70
30594;DHT22;33199;47.590;8.300;2023-05-17T05:32:07;15.10;71.70
30594;DHT22;33199;47.590;8.300;2023-05-17T05:34:32;15.10;71.70
30594;DHT22;33199;47.590;8.300;2023-05-17T05:36:58;15.10;71.70
30594;DHT22;33199;47.590;8.300;2023-05-17T05:39:24;15.10;71.70
30594;DHT22;33199;47.590;8.300;2023-05-17T05:41:49;15.10;71.70
30594;DHT22;33199;47.590;8.300;2023-05-17T05:44:16;15.10;71.70
30594;DHT22;33199;47.590;8.300;2023-05-17T05:46:41;15.10;71.70
30594;DHT22;33199;47.590;8.300;2023-05-17T05:49:07;15.20;71.80
30594;DHT22;33199;47.590;8.300;2023-05-17T05:51:32;15.10;71.70
30594;DHT22;33199;47.590;8.300;2023-05-17T05:53:59;15.10;71.70
30594;DHT22;33199;47.590;8.300;2023-05-17T05:56:24;15.10;71.70
30594;DHT22;33199;47.590;8.300;2023-05-17T05:58:52;15.10;71.80
30594;DHT22;33199;47.590;8.300;2023-05-17T06:01:17;15.10;71.80
30594;DHT22;33199;47.590;8.300;2023-05-17T06:03:42;15.10;71.80
30594;DHT22;33199;47.590;8.300;2023-05-17T06:06:08;15.10;71.80
30594;DHT22;33199;47.590;8.300;2023-05-17T06:08:34;15.10;71.80
30594;DHT22;33199;47.590;8.300;2023-05-17T06:11:00;15.10;71.80
30594;DHT22;33199;47.590;8.300;2023-05-17T06:13:25;15.10;71.80
30594;DHT22;33199;47.590;8.300;2023-05-17T06:15:50;15.10;71.80
30594;DHT22;33199;47.590;8.300;2023-05-17T06:18:16;15.10;71.80
30594;DHT22;33199;47.590;8.300;2023-05-17T06:20:41;15.10;71.80
30594;DHT22;33199;47.590;8.300;2023-05-17T06:23:07;15.10;71.90
30594;DHT22;33199;47.590;8.300;2023-05-17T06:25:32;15.10;71.80
30594;DHT22;33199;47.590;8.300;2023-05-17T06:27:58;15.10;71.80
30594;DHT22;33199;47.590;8.300;2023-05-17T06:30:26;15.10;71.80
30594;DHT22;33199;47.590;8.300;2023-05-17T06:32:52;15.10;71.80
30594;DHT22;33199;47.590;8.300;2023-05-17T06:35:18;15.10;71.80
30594;DHT22;33199;47.590;8.300;2023-05-17T06:37:43;15.10;71.80
30594;DHT22;33199;47.590;8.300;2023-05-17T06:40:09;15.10;71.80
30594;DHT22;33199;47.590;8.300;2023-05-17T06:42:34;15.10;71.80
30594;DHT22;33199;47.590;8.300;2023-05-17T06:45:00;15.10;71.80
30594;DHT22;33199;47.590;8.300;2023-05-17T06:47:25;15.10;71.80
30594;DHT22;33199;47.590;8.300;2023-05-17T06:49:51;15.10;71.80
30594;DHT22;33199;47.590;8.300;2023-05-17T06:52:16;15.10;71.90
30594;DHT22;33199;47.590;8.300;2023-05-17T06:54:42;15.10;71.80
30594;DHT22;33199;47.590;8.300;2023-05-17T06:57:08;15.00;71.80
30594;DHT22;33199;47.590;8.300;2023-05-17T06:59:34;15.10;71.80
30594;DHT22;33199;47.590;8.300;2023-05-17T07:02:00;15.10;71.80
30594;DHT22;33199;47.590;8.300;2023-05-17T07:04:26;15.00;71.80
30594;DHT22;33199;47.590;8.300;2023-05-17T07:06:51;15.10;71.80
30594;DHT22;33199;47.590;8.300;2023-05-17T07:09:17;15.10;71.80
30594;DHT22;33199;47.590;8.300;2023-05-17T07:11:43;15.10;71.80
30594;DHT22;33199;47.590;8.300;2023-05-17T07:14:08;15.00;71.80
30594;DHT22;33199;47.590;8.300;2023-05-17T07:16:34;15.00;71.80
30594;DHT22;33199;47.590;8.300;2023-05-17T07:18:59;15.10;71.80
30594;DHT22;33199;47.590;8.300;2023-05-17T07:21:25;15.00;71.80
30594;DHT22;33199;47.590;8.300;2023-05-17T07:23:50;15.00;71.70
30594;DHT22;33199;47.590;8.300;2023-05-17T07:26:19;14.90;58.20
30594;DHT22;33199;47.590;8.300;2023-05-17T07:28:46;14.80;56.90
30594;DHT22;33199;47.590;8.300;2023-05-17T07:31:12;14.60;56.50
30594;DHT22;33199;47.590;8.300;2023-05-17T07:33:39;14.50;58.50
30594;DHT22;33199;47.590;8.300;2023-05-17T07:36:05;14.40;59.70
30594;DHT22;33199;47.590;8.300;2023-05-17T07:38:31;14.40;60.20
30594;DHT22;33199;47.590;8.300;2023-05-17T07:40:56;14.40;61.00
30594;DHT22;33199;47.590;8.300;2023-05-17T07:43:22;14.40;61.80
30594;DHT22;33199;47.590;8.300;2023-05-17T07:45:48;14.40;63.20
30594;DHT22;33199;47.590;8.300;2023-05-17T07:48:13;14.50;59.80
30594;DHT22;33199;47.590;8.300;2023-05-17T07:50:40;14.40;55.60
30594;DHT22;33199;47.590;8.300;2023-05-17T07:53:05;14.30;55.50
30594;DHT22;33199;47.590;8.300;2023-05-17T07:55:31;14.30;54.70
30594;DHT22;33199;47.590;8.300;2023-05-17T07:57:56;14.20;55.90
30594;DHT22;33199;47.590;8.300;2023-05-17T08:00:22;14.10;57.50
30594;DHT22;33199;47.590;8.300;2023-05-17T08:02:48;14.10;58.40
30594;DHT22;33199;47.590;8.300;2023-05-17T08:05:13;14.10;58.60
30594;DHT22;33199;47.590;8.300;2023-05-17T08:07:39;14.10;59.70
30594;DHT22;33199;47.590;8.300;2023-05-17T08:10:04;14.20;59.60
30594;DHT22;33199;47.590;8.300;2023-05-17T08:12:30;14.20;60.30
30594;DHT22;33199;47.590;8.300;2023-05-17T08:14:55;14.20;61.80
30594;DHT22;33199;47.590;8.300;2023-05-17T08:17:21;14.20;63.00
30594;DHT22;33199;47.590;8.300;2023-05-17T08:19:47;14.30;63.90
30594;DHT22;33199;47.590;8.300;2023-05-17T08:22:12;14.30;64.20
30594;DHT22;33199;47.590;8.300;2023-05-17T08:24:38;14.30;64.30
30594;DHT22;33199;47.590;8.300;2023-05-17T08:27:03;14.30;64.50
30594;DHT22;33199;47.590;8.300;2023-05-17T08:29:29;14.40;64.80
30594;DHT22;33199;47.590;8.300;2023-05-17T08:31:54;14.40;64.90
30594;DHT22;33199;47.590;8.300;2023-05-17T08:34:20;14.40;65.20
30594;DHT22;33199;47.590;8.300;2023-05-17T08:36:45;14.40;65.40
30594;DHT22;33199;47.590;8.300;2023-05-17T08:39:11;14.40;65.70
30594;DHT22;33199;47.590;8.300;2023-05-17T08:41:37;14.40;65.50
30594;DHT22;33199;47.590;8.300;2023-05-17T08:44:03;14.40;65.70
30594;DHT22;33199;47.590;8.300;2023-05-17T08:46:29;14.40;65.80
30594;DHT22;33199;47.590;8.300;2023-05-17T08:48:55;14.40;65.80
30594;DHT22;33199;47.590;8.300;2023-05-17T08:51:24;14.40;65.90
30594;DHT22;33199;47.590;8.300;2023-05-17T08:53:50;14.40;65.90
30594;DHT22;33199;47.590;8.300;2023-05-17T08:56:16;14.40;65.90
30594;DHT22;33199;47.590;8.300;2023-05-17T08:58:42;14.40;65.90
30594;DHT22;33199;47.590;8.300;2023-05-17T09:01:09;14.50;65.90
30594;DHT22;33199;47.590;8.300;2023-05-17T09:03:34;14.40;65.90
30594;DHT22;33199;47.590;8.300;2023-05-17T09:06:00;14.40;66.00
30594;DHT22;33199;47.590;8.300;2023-05-17T09:08:27;14.40;66.10
30594;DHT22;33199;47.590;8.300;2023-05-17T09:10:54;14.50;66.30
30594;DHT22;33199;47.590;8.300;2023-05-17T09:13:21;14.50;66.30
30594;DHT22;33199;47.590;8.300;2023-05-17T09:15:46;14.50;66.40
30594;DHT22;33199;47.590;8.300;2023-05-17T09:18:12;14.50;66.50
30594;DHT22;33199;47.590;8.300;2023-05-17T09:20:38;14.50;66.50
30594;DHT22;33199;47.590;8.300;2023-05-17T09:23:05;14.50;66.50
30594;DHT22;33199;47.590;8.300;2023-05-17T09:25:32;14.50;66.70
30594;DHT22;33199;47.590;8.300;2023-05-17T09:28:01;14.50;66.50
30594;DHT22;33199;47.590;8.300;2023-05-17T09:30:30;14.50;66.70
30594;DHT22;33199;47.590;8.300;2023-05-17T09:32:56;14.50;66.70
30594;DHT22;33199;47.590;8.300;2023-05-17T09:35:29;14.50;66.80
30594;DHT22;33199;47.590;8.300;2023-05-17T09:38:12;14.50;66.80
30594;DHT22;33199;47.590;8.300;2023-05-17T09:40:39;14.50;66.80
30594;DHT22;33199;47.590;8.300;2023-05-17T09:43:04;14.50;66.90
30594;DHT22;33199;47.590;8.300;2023-05-17T09:45:30;14.50;66.90
30594;DHT22;33199;47.590;8.300;2023-05-17T09:47:56;14.50;67.00
30594;DHT22;33199;47.590;8.300;2023-05-17T09:50:21;14.60;67.10
30594;DHT22;33199;47.590;8.300;2023-05-17T09:52:47;14.50;66.90
30594;DHT22;33199;47.590;8.300;2023-05-17T09:55:12;14.50;67.00
30594;DHT22;33199;47.590;8.300;2023-05-17T09:57:39;14.50;67.10
30594;DHT22;33199;47.590;8.300;2023-05-17T10:00:06;14.60;67.10
30594;DHT22;33199;47.590;8.300;2023-05-17T10:02:42;14.60;67.20
30594;DHT22;33199;47.590;8.300;2023-05-17T10:05:10;14.60;67.30
30594;DHT22;33199;47.590;8.300;2023-05-17T10:07:36;14.60;67.40
30594;DHT22;33199;47.590;8.300;2023-05-17T10:10:02;14.60;67.30
30594;DHT22;33199;47.590;8.300;2023-05-17T10:12:28;14.60;67.40
30594;DHT22;33199;47.590;8.300;2023-05-17T10:14:54;14.60;67.50
30594;DHT22;33199;47.590;8.300;2023-05-17T10:17:20;14.60;67.50
30594;DHT22;33199;47.590;8.300;2023-05-17T10:19:46;14.60;67.40
30594;DHT22;33199;47.590;8.300;2023-05-17T10:22:11;14.60;67.50
30594;DHT22;33199;47.590;8.300;2023-05-17T10:24:37;14.60;67.50
30594;DHT22;33199;47.590;8.300;2023-05-17T10:27:04;14.60;67.50
30594;DHT22;33199;47.590;8.300;2023-05-17T10:29:30;14.60;67.40
30594;DHT22;33199;47.590;8.300;2023-05-17T10:31:57;14.60;67.30
30594;DHT22;33199;47.590;8.300;2023-05-17T10:34:23;14.60;67.50
30594;DHT22;33199;47.590;8.300;2023-05-17T10:36:50;14.60;67.50
30594;DHT22;33199;47.590;8.300;2023-05-17T10:39:16;14.60;67.60
30594;DHT22;33199;47.590;8.300;2023-05-17T10:41:42;14.70;67.70
30594;DHT22;33199;47.590;8.300;2023-05-17T10:44:10;14.60;67.60
30594;DHT22;33199;47.590;8.300;2023-05-17T10:46:36;14.60;67.70
30594;DHT22;33199;47.590;8.300;2023-05-17T10:49:02;14.60;67.70
30594;DHT22;33199;47.590;8.300;2023-05-17T10:51:31;14.60;67.60
30594;DHT22;33199;47.590;8.300;2023-05-17T10:56:32;14.70;67.90
30594;DHT22;33199;47.590;8.300;2023-05-17T11:09:41;14.70;67.70
30594;DHT22;33199;47.590;8.300;2023-05-17T11:12:08;14.70;67.90
30594;DHT22;33199;47.590;8.300;2023-05-17T11:17:15;14.70;67.70
30594;DHT22;33199;47.590;8.300;2023-05-17T11:22:37;14.70;67.70
30594;DHT22;33199;47.590;8.300;2023-05-17T11:25:13;14.70;67.90
30594;DHT22;33199;47.590;8.300;2023-05-17T11:27:43;14.70;67.80
30594;DHT22;33199;47.590;8.300;2023-05-17T11:30:14;14.70;67.80
30594;DHT22;33199;47.590;8.300;2023-05-17T11:32:44;14.70;68.50
30594;DHT22;33199;47.590;8.300;2023-05-17T11:35:10;14.70;67.70
30594;DHT22;33199;47.590;8.300;2023-05-17T11:37:36;14.70;67.70
30594;DHT22;33199;47.590;8.300;2023-05-17T11:40:05;14.70;67.80
30594;DHT22;33199;47.590;8.300;2023-05-17T11:42:32;14.70;67.80
30594;DHT22;33199;47.590;8.300;2023-05-17T11:44:57;14.70;67.70
30594;DHT22;33199;47.590;8.300;2023-05-17T11:47:25;14.80;68.00
30594;DHT22;33199;47.590;8.300;2023-05-17T11:49:51;14.70;67.80
30594;DHT22;33199;47.590;8.300;2023-05-17T11:52:18;14.70;67.80
30594;DHT22;33199;47.590;8.300;2023-05-17T11:54:43;14.70;67.70
30594;DHT22;33199;47.590;8.300;2023-05-17T11:57:10;14.80;67.80
30594;DHT22;33199;47.590;8.300;2023-05-17T11:59:36;14.80;67.60
30594;DHT22;33199;47.590;8.300;2023-05-17T12:02:05;14.80;67.80
30594;DHT22;33199;47.590;8.300;2023-05-17T12:04:33;14.80;67.70
30594;DHT22;33199;47.590;8.300;2023-05-17T12:07:01;14.80;67.80
30594;DHT22;33199;47.590;8.300;2023-05-17T12:09:26;14.80;67.70
30594;DHT22;33199;47.590;8.300;2023-05-17T12:11:52;14.80;67.80
30594;DHT22;33199;47.590;8.300;2023-05-17T12:14:18;14.80;67.40
30594;DHT22;33199;47.590;8.300;2023-05-17T12:16:46;14.80;67.60
30594;DHT22;33199;47.590;8.300;2023-05-17T12:19:16;14.80;67.70
30594;DHT22;33199;47.590;8.300;2023-05-17T12:21:43;14.80;67.90
30594;DHT22;33199;47.590;8.300;2023-05-17T12:24:08;14.80;67.80
30594;DHT22;33199;47.590;8.300;2023-05-17T12:26:34;14.80;67.80
30594;DHT22;33199;47.590;8.300;2023-05-17T12:29:01;14.80;67.60
30594;DHT22;33199;47.590;8.300;2023-05-17T12:31:33;14.80;67.70
30594;DHT22;33199;47.590;8.300;2023-05-17T12:33:59;14.80;67.60
30594;DHT22;33199;47.590;8.300;2023-05-17T12:36:27;14.80;67.80
30594;DHT22;33199;47.590;8.300;2023-05-17T12:38:52;14.80;67.80
30594;DHT22;33199;47.590;8.300;2023-05-17T12:41:20;14.80;67.60
30594;DHT22;33199;47.590;8.300;2023-05-17T12:43:47;14.80;67.80
30594;DHT22;33199;47.590;8.300;2023-05-17T12:46:15;14.80;67.50
30594;DHT22;33199;47.590;8.300;2023-05-17T12:48:43;14.90;67.70
30594;DHT22;33199;47.590;8.300;2023-05-17T12:51:09;14.90;67.70
30594;DHT22;33199;47.590;8.300;2023-05-17T12:53:39;14.90;67.60
30594;DHT22;33199;47.590;8.300;2023-05-17T12:56:05;14.90;67.70
30594;DHT22;33199;47.590;8.300;2023-05-17T12:58:31;14.90;67.30
30594;DHT22;33199;47.590;8.300;2023-05-17T13:00:57;14.90;67.50
30594;DHT22;33199;47.590;8.300;2023-05-17T13:03:22;14.90;67.50
30594;DHT22;33199;47.590;8.300;2023-05-17T13:05:56;14.90;67.30
30594;DHT22;33199;47.590;8.300;2023-05-17T13:08:22;14.90;67.50
30594;DHT22;33199;47.590;8.300;2023-05-17T13:10:48;14.90;67.50
30594;DHT22;33199;47.590;8.300;2023-05-17T13:13:20;14.90;67.30
30594;DHT22;33199;47.590;8.300;2023-05-17T13:15:47;14.90;66.80
30594;DHT22;33199;47.590;8.300;2023-05-17T13:18:12;14.90;66.90
30594;DHT22;33199;47.590;8.300;2023-05-17T13:20:43;14.90;67.60
30594;DHT22;33199;47.590;8.300;2023-05-17T13:23:08;14.90;66.90
30594;DHT22;33199;47.590;8.300;2023-05-17T13:25:34;14.90;67.10
30594;DHT22;33199;47.590;8.300;2023-05-17T13:28:01;14.90;67.10
30594;DHT22;33199;47.590;8.300;2023-05-17T13:30:26;15.00;66.60
30594;DHT22;33199;47.590;8.300;2023-05-17T13:32:52;15.00;67.90
30594;DHT22;33199;47.590;8.300;2023-05-17T13:35:18;15.00;67.50
30594;DHT22;33199;47.590;8.300;2023-05-17T13:37:44;15.00;67.40
30594;DHT22;33199;47.590;8.300;2023-05-17T13:40:10;15.00;66.90
30594;DHT22;33199;47.590;8.300;2023-05-17T13:42:35;15.00;65.70
30594;DHT22;33199;47.590;8.300;2023-05-17T13:45:01;15.00;67.00
30594;DHT22;33199;47.590;8.300;2023-05-17T13:47:27;15.00;66.90
30594;DHT22;33199;47.590;8.300;2023-05-17T13:49:58;15.00;66.40
30594;DHT22;33199;47.590;8.300;2023-05-17T13:52:23;15.00;66.60
30594;DHT22;33199;47.590;8.300;2023-05-17T13:54:49;15.00;65.70
30594;DHT22;33199;47.590;8.300;2023-05-17T13:57:15;15.00;66.40
30594;DHT22;33199;47.590;8.300;2023-05-17T13:59:41;15.00;67.50
30594;DHT22;33199;47.590;8.300;2023-05-17T14:02:07;15.00;66.60
30594;DHT22;33199;47.590;8.300;2023-05-17T14:04:33;15.00;65.60
30594;DHT22;33199;47.590;8.300;2023-05-17T14:06:59;15.00;65.60
30594;DHT22;33199;47.590;8.300;2023-05-17T14:09:26;15.00;65.50
30594;DHT22;33199;47.590;8.300;2023-05-17T14:11:51;15.00;65.40
30594;DHT22;33199;47.590;8.300;2023-05-17T14:14:17;15.00;65.60
30594;DHT22;33199;47.590;8.300;2023-05-17T14:16:42;15.00;66.20
30594;DHT22;33199;47.590;8.300;2023-05-17T14:19:08;15.00;65.40
30594;DHT22;33199;47.590;8.300;2023-05-17T14:21:33;15.00;65.50
30594;DHT22;33199;47.590;8.300;2023-05-17T14:23:59;15.10;66.10
30594;DHT22;33199;47.590;8.300;2023-05-17T14:26:24;15.10;65.70
30594;DHT22;33199;47.590;8.300;2023-05-17T14:28:50;15.10;65.70
30594;DHT22;33199;47.590;8.300;2023-05-17T14:31:16;15.10;65.50
30594;DHT22;33199;47.590;8.300;2023-05-17T14:33:43;15.10;65.60
30594;DHT22;33199;47.590;8.300;2023-05-17T14:36:09;15.10;65.50
30594;DHT22;33199;47.590;8.300;2023-05-17T14:38:35;15.10;65.30
30594;DHT22;33199;47.590;8.300;2023-05-17T14:41:01;15.10;65.30
30594;DHT22;33199;47.590;8.300;2023-05-17T14:43:27;15.10;65.30
30594;DHT22;33199;47.590;8.300;2023-05-17T14:45:53;15.10;65.30
30594;DHT22;33199;47.590;8.300;2023-05-17T14:48:18;15.10;64.80
30594;DHT22;33199;47.590;8.300;2023-05-17T14:50:44;15.10;64.90
30594;DHT22;33199;47.590;8.300;2023-05-17T14:53:09;15.10;64.40
30594;DHT22;33199;47.590;8.300;2023-05-17T14:55:35;15.20;63.80
30594;DHT22;33199;47.590;8.300;2023-05-17T14:58:00;15.20;63.80
30594;DHT22;33199;47.590;8.300;2023-05-17T15:00:26;15.20;64.10
30594;DHT22;33199;47.590;8.300;2023-05-17T15:02:52;15.20;64.60
30594;DHT22;33199;47.590;8.300;2023-05-17T15:05:18;15.10;65.00
30594;DHT22;33199;47.590;8.300;2023-05-17T15:07:43;15.10;64.70
30594;DHT22;33199;47.590;8.300;2023-05-17T15:10:09;15.20;65.30
30594;DHT22;33199;47.590;8.300;2023-05-17T15:12:37;15.10;65.70
30594;DHT22;33199;47.590;8.300;2023-05-17T15:15:02;15.20;65.90
30594;DHT22;33199;47.590;8.300;2023-05-17T15:17:28;15.20;65.90
30594;DHT22;33199;47.590;8.300;2023-05-17T15:19:53;15.10;65.30
30594;DHT22;33199;47.590;8.300;2023-05-17T15:22:19;15.20;65.00
30594;DHT22;33199;47.590;8.300;2023-05-17T15:24:44;15.20;64.90
30594;DHT22;33199;47.590;8.300;2023-05-17T15:27:10;15.20;65.30
30594;DHT22;33199;47.590;8.300;2023-05-17T15:29:39;15.20;65.30
30594;DHT22;33199;47.590;8.300;2023-05-17T15:32:06;15.20;65.80
30594;DHT22;33199;47.590;8.300;2023-05-17T15:34:32;15.20;65.20
30594;DHT22;33199;47.590;8.300;2023-05-17T15:36:57;15.20;64.50
30594;DHT22;33199;47.590;8.300;2023-05-17T15:39:23;15.20;65.70
30594;DHT22;33199;47.590;8.300;2023-05-17T15:41:48;15.20;65.20
30594;DHT22;33199;47.590;8.300;2023-05-17T15:44:14;15.20;64.10
30594;DHT22;33199;47.590;8.300;2023-05-17T15:46:40;15.20;64.40
30594;DHT22;33199;47.590;8.300;2023-05-17T15:49:05;15.20;64.80
30594;DHT22;33199;47.590;8.300;2023-05-17T15:51:31;15.20;65.20
30594;DHT22;33199;47.590;8.300;2023-05-17T15:53:56;15.20;65.60
30594;DHT22;33199;47.590;8.300;2023-05-17T15:56:22;15.20;65.50